sensor_id;sensor_type;location;lat;lon;timestamp;temperature;humidity
21612;DHT22;47005;52.292;13.452;2022-10-15T00:02:12;13.90;99.90
21612;DHT22;47005;52.292;13.452;2022-10-15T00:04:38;13.90;99.90
21612;DHT22;47005;52.292;13.452;2022-10-15T00:07:03;13.90;99.90
21612;DHT22;47005;52.292;13.452;2022-10-15T00:09:29;13.90;99.90
21612;DHT22;47005;52.292;13.452;2022-10-15T00:11:54;14.00;99.90
21612;DHT22;47005;52.292;13.452;2022-10-15T00:14:20;13.90;99.90
21612;DHT22;47005;52.292;13.452;2022-10-15T00:16:46;13.90;99.90
21612;DHT22;47005;52.292;13.452;2022-10-15T00:19:11;13.90;99.90
21612;DHT22;47005;52.292;13.452;2022-10-15T00:21:37;14.00;99.90
21612;DHT22;47005;52.292;13.452;2022-10-15T00:24:03;13.90;99.90
21612;DHT22;47005;52.292;13.452;2022-10-15T00:26:29;14.00;99.90
21612;DHT22;47005;52.292;13.452;2022-10-15T00:29:00;14.00;99.90
21612;DHT22;47005;52.292;13.452;2022-10-15T00:31:28;14.00;99.90
21612;DHT22;47005;52.292;13.452;2022-10-15T00:33:56;14.00;99.90
21612;DHT22;47005;52.292;13.452;2022-10-15T00:36:24;14.00;99.90
21612;DHT22;47005;52.292;13.452;2022-10-15T00:38:50;14.00;99.90
21612;DHT22;47005;52.292;13.452;2022-10-15T00:41:22;14.00;99.90
21612;DHT22;47005;52.292;13.452;2022-10-15T00:43:50;14.00;99.90
21612;DHT22;47005;52.292;13.452;2022-10-15T00:46:26;14.00;99.90
21612;DHT22;47005;52.292;13.452;2022-10-15T00:49:01;14.00;99.90
21612;DHT22;47005;52.292;13.452;2022-10-15T00:51:34;14.00;99.90
21612;DHT22;47005;52.292;13.452;2022-10-15T00:54:04;14.00;99.90
21612;DHT22;47005;52.292;13.452;2022-10-15T00:56:30;14.00;99.90
21612;DHT22;47005;52.292;13.452;2022-10-15T00:58:57;14.00;99.90
21612;DHT22;47005;52.292;13.452;2022-10-15T01:01:23;14.00;99.90
21612;DHT22;47005;52.292;13.452;2022-10-15T01:03:51;14.00;99.90
21612;DHT22;47005;52.292;13.452;2022-10-15T01:06:16;14.00;99.90
21612;DHT22;47005;52.292;13.452;2022-10-15T01:08:42;14.00;99.90
21612;DHT22;47005;52.292;13.452;2022-10-15T01:16:48;14.00;99.90
21612;DHT22;47005;52.292;13.452;2022-10-15T01:22:04;14.00;99.90
21612;DHT22;47005;52.292;13.452;2022-10-15T01:24:42;14.00;99.90
21612;DHT22;47005;52.292;13.452;2022-10-15T01:27:28;14.00;99.90
21612;DHT22;47005;52.292;13.452;2022-10-15T01:32:29;14.00;99.90
21612;DHT22;47005;52.292;13.452;2022-10-15T01:35:08;14.00;99.90
21612;DHT22;47005;52.292;13.452;2022-10-15T01:37:45;14.00;99.90
21612;DHT22;47005;52.292;13.452;2022-10-15T01:43:02;14.00;99.90
21612;DHT22;47005;52.292;13.452;2022-10-15T01:45:34;14.00;99.90
21612;DHT22;47005;52.292;13.452;2022-10-15T01:48:13;14.00;99.90
21612;DHT22;47005;52.292;13.452;2022-10-15T01:50:44;14.00;99.90
21612;DHT22;47005;52.292;13.452;2022-10-15T01:53:14;14.00;99.90
21612;DHT22;47005;52.292;13.452;2022-10-15T01:55:41;14.00;99.90
21612;DHT22;47005;52.292;13.452;2022-10-15T01:58:09;14.00;99.90
21612;DHT22;47005;52.292;13.452;2022-10-15T02:00:36;14.00;99.90
21612;DHT22;47005;52.292;13.452;2022-10-15T02:03:03;14.00;99.90
21612;DHT22;47005;52.292;13.452;2022-10-15T02:05:32;14.00;99.90
21612;DHT22;47005;52.292;13.452;2022-10-15T02:08:19;14.00;99.90
21612;DHT22;47005;52.292;13.452;2022-10-15T02:18:46;14.00;99.90
21612;DHT22;47005;52.292;13.452;2022-10-15T02:21:24;14.00;99.90
21612;DHT22;47005;52.292;13.452;2022-10-15T02:23:57;14.00;99.90
21612;DHT22;47005;52.292;13.452;2022-10-15T02:26:27;14.00;99.90
21612;DHT22;47005;52.292;13.452;2022-10-15T02:28:57;14.00;99.90
21612;DHT22;47005;52.292;13.452;2022-10-15T02:31:25;14.00;99.90
21612;DHT22;47005;52.292;13.452;2022-10-15T02:33:57;14.00;99.90
21612;DHT22;47005;52.292;13.452;2022-10-15T02:36:25;14.00;99.90
21612;DHT22;47005;52.292;13.452;2022-10-15T02:38:52;14.00;99.90
21612;DHT22;47005;52.292;13.452;2022-10-15T02:41:19;14.00;99.90
21612;DHT22;47005;52.292;13.452;2022-10-15T02:43:46;14.00;99.90
21612;DHT22;47005;52.292;13.452;2022-10-15T02:46:13;14.00;99.90
21612;DHT22;47005;52.292;13.452;2022-10-15T02:48:40;14.00;99.90
21612;DHT22;47005;52.292;13.452;2022-10-15T02:51:06;14.00;99.90
21612;DHT22;47005;52.292;13.452;2022-10-15T02:53:32;14.00;99.90
21612;DHT22;47005;52.292;13.452;2022-10-15T02:55:57;14.10;99.90
21612;DHT22;47005;52.292;13.452;2022-10-15T02:58:23;14.10;99.90
21612;DHT22;47005;52.292;13.452;2022-10-15T03:00:49;14.10;99.90
21612;DHT22;47005;52.292;13.452;2022-10-15T03:03:14;14.10;99.90
21612;DHT22;47005;52.292;13.452;2022-10-15T03:05:41;14.10;99.90
21612;DHT22;47005;52.292;13.452;2022-10-15T03:08:07;14.10;99.90
21612;DHT22;47005;52.292;13.452;2022-10-15T03:10:32;14.10;99.90
21612;DHT22;47005;52.292;13.452;2022-10-15T03:13:03;14.10;99.90
21612;DHT22;47005;52.292;13.452;2022-10-15T03:15:28;14.10;99.90
21612;DHT22;47005;52.292;13.452;2022-10-15T03:17:54;14.10;99.90
21612;DHT22;47005;52.292;13.452;2022-10-15T03:20:19;14.10;99.90
21612;DHT22;47005;52.292;13.452;2022-10-15T03:22:45;14.10;99.90
21612;DHT22;47005;52.292;13.452;2022-10-15T03:25:11;14.10;99.90
21612;DHT22;47005;52.292;13.452;2022-10-15T03:27:37;14.10;99.90
21612;DHT22;47005;52.292;13.452;2022-10-15T03:30:02;14.00;99.90
21612;DHT22;47005;52.292;13.452;2022-10-15T03:32:28;14.00;99.90
21612;DHT22;47005;52.292;13.452;2022-10-15T03:34:54;14.00;99.90
21612;DHT22;47005;52.292;13.452;2022-10-15T03:37:19;14.00;99.90
21612;DHT22;47005;52.292;13.452;2022-10-15T03:39:45;14.00;99.90
21612;DHT22;47005;52.292;13.452;2022-10-15T03:42:10;14.00;99.90
21612;DHT22;47005;52.292;13.452;2022-10-15T03:44:36;14.00;99.90
21612;DHT22;47005;52.292;13.452;2022-10-15T03:47:01;14.00;99.90
21612;DHT22;47005;52.292;13.452;2022-10-15T03:49:27;14.00;99.90
21612;DHT22;47005;52.292;13.452;2022-10-15T03:51:52;14.00;99.90
21612;DHT22;47005;52.292;13.452;2022-10-15T03:54:18;14.00;99.90
21612;DHT22;47005;52.292;13.452;2022-10-15T03:56:43;14.00;99.90
21612;DHT22;47005;52.292;13.452;2022-10-15T03:59:09;14.00;99.90
21612;DHT22;47005;52.292;13.452;2022-10-15T04:01:34;13.90;99.90
21612;DHT22;47005;52.292;13.452;2022-10-15T04:04:00;13.90;99.90
21612;DHT22;47005;52.292;13.452;2022-10-15T04:06:25;14.00;99.90
21612;DHT22;47005;52.292;13.452;2022-10-15T04:08:51;13.90;99.90
21612;DHT22;47005;52.292;13.452;2022-10-15T04:11:17;13.90;99.90
21612;DHT22;47005;52.292;13.452;2022-10-15T04:13:42;14.00;99.90
21612;DHT22;47005;52.292;13.452;2022-10-15T04:16:08;13.90;99.90
21612;DHT22;47005;52.292;13.452;2022-10-15T04:18:33;13.90;99.90
21612;DHT22;47005;52.292;13.452;2022-10-15T04:21:00;13.90;99.90
21612;DHT22;47005;52.292;13.452;2022-10-15T04:23:26;13.90;99.90
21612;DHT22;47005;52.292;13.452;2022-10-15T04:25:51;13.80;99.90
21612;DHT22;47005;52.292;13.452;2022-10-15T04:28:17;13.90;99.90
21612;DHT22;47005;52.292;13.452;2022-10-15T04:30:42;13.90;99.90
21612;DHT22;47005;52.292;13.452;2022-10-15T04:33:08;13.90;99.90
21612;DHT22;47005;52.292;13.452;2022-10-15T04:35:34;13.90;99.90
21612;DHT22;47005;52.292;13.452;2022-10-15T04:38:00;13.90;99.90
21612;DHT22;47005;52.292;13.452;2022-10-15T04:40:26;13.90;99.90
21612;DHT22;47005;52.292;13.452;2022-10-15T04:42:52;13.80;99.90
21612;DHT22;47005;52.292;13.452;2022-10-15T04:45:18;13.80;99.90
21612;DHT22;47005;52.292;13.452;2022-10-15T04:47:44;13.80;99.90
21612;DHT22;47005;52.292;13.452;2022-10-15T04:50:10;13.80;99.90
21612;DHT22;47005;52.292;13.452;2022-10-15T04:52:36;13.80;99.90
21612;DHT22;47005;52.292;13.452;2022-10-15T04:55:01;13.70;99.90
21612;DHT22;47005;52.292;13.452;2022-10-15T04:57:29;13.70;99.90
21612;DHT22;47005;52.292;13.452;2022-10-15T04:59:56;13.70;99.90
21612;DHT22;47005;52.292;13.452;2022-10-15T05:02:22;13.70;99.90
21612;DHT22;47005;52.292;13.452;2022-10-15T05:04:47;13.70;99.90
21612;DHT22;47005;52.292;13.452;2022-10-15T05:07:13;13.70;99.90
21612;DHT22;47005;52.292;13.452;2022-10-15T05:09:39;13.70;99.90
21612;DHT22;47005;52.292;13.452;2022-10-15T05:12:04;13.70;99.90
21612;DHT22;47005;52.292;13.452;2022-10-15T05:14:30;13.70;99.90
21612;DHT22;47005;52.292;13.452;2022-10-15T05:16:55;13.70;99.90
21612;DHT22;47005;52.292;13.452;2022-10-15T05:19:21;13.60;99.90
21612;DHT22;47005;52.292;13.452;2022-10-15T05:21:47;13.60;99.90
21612;DHT22;47005;52.292;13.452;2022-10-15T05:24:12;13.60;99.90
21612;DHT22;47005;52.292;13.452;2022-10-15T05:26:38;13.60;99.90
21612;DHT22;47005;52.292;13.452;2022-10-15T05:29:03;13.60;99.90
21612;DHT22;47005;52.292;13.452;2022-10-15T05:31:30;13.60;99.90
21612;DHT22;47005;52.292;13.452;2022-10-15T05:33:56;13.60;99.90
21612;DHT22;47005;52.292;13.452;2022-10-15T05:36:25;13.60;99.90
21612;DHT22;47005;52.292;13.452;2022-10-15T05:38:56;13.60;99.90
21612;DHT22;47005;52.292;13.452;2022-10-15T05:41:22;13.60;99.90
21612;DHT22;47005;52.292;13.452;2022-10-15T05:43:49;13.60;99.90
21612;DHT22;47005;52.292;13.452;2022-10-15T05:46:16;13.60;99.90
21612;DHT22;47005;52.292;13.452;2022-10-15T05:48:41;13.60;99.90
21612;DHT22;47005;52.292;13.452;2022-10-15T05:51:10;13.60;99.90
21612;DHT22;47005;52.292;13.452;2022-10-15T05:53:37;13.50;99.90
21612;DHT22;47005;52.292;13.452;2022-10-15T05:56:03;13.50;99.90
21612;DHT22;47005;52.292;13.452;2022-10-15T05:58:31;13.50;99.90
21612;DHT22;47005;52.292;13.452;2022-10-15T06:00:58;13.40;99.90
21612;DHT22;47005;52.292;13.452;2022-10-15T06:03:25;13.50;99.90
21612;DHT22;47005;52.292;13.452;2022-10-15T06:05:51;13.50;99.90
21612;DHT22;47005;52.292;13.452;2022-10-15T06:08:17;13.50;99.90
21612;DHT22;47005;52.292;13.452;2022-10-15T06:10:43;13.50;99.90
21612;DHT22;47005;52.292;13.452;2022-10-15T06:13:09;13.50;99.90
21612;DHT22;47005;52.292;13.452;2022-10-15T06:15:38;13.50;99.90
21612;DHT22;47005;52.292;13.452;2022-10-15T06:18:05;13.50;99.90
21612;DHT22;47005;52.292;13.452;2022-10-15T06:20:31;13.50;99.90
21612;DHT22;47005;52.292;13.452;2022-10-15T06:23:00;13.40;99.90
21612;DHT22;47005;52.292;13.452;2022-10-15T06:25:26;13.50;99.90
21612;DHT22;47005;52.292;13.452;2022-10-15T06:27:52;13.50;99.90
21612;DHT22;47005;52.292;13.452;2022-10-15T06:30:18;13.50;99.90
21612;DHT22;47005;52.292;13.452;2022-10-15T06:32:51;13.50;99.90
21612;DHT22;47005;52.292;13.452;2022-10-15T06:35:18;13.50;99.90
21612;DHT22;47005;52.292;13.452;2022-10-15T06:37:45;13.40;99.90
21612;DHT22;47005;52.292;13.452;2022-10-15T06:40:11;13.50;99.90
21612;DHT22;47005;52.292;13.452;2022-10-15T06:42:37;13.40;99.90
21612;DHT22;47005;52.292;13.452;2022-10-15T06:45:03;13.50;99.90
21612;DHT22;47005;52.292;13.452;2022-10-15T06:47:29;13.50;99.90
21612;DHT22;47005;52.292;13.452;2022-10-15T06:49:55;13.50;99.90
21612;DHT22;47005;52.292;13.452;2022-10-15T06:52:20;13.40;99.90
21612;DHT22;47005;52.292;13.452;2022-10-15T06:54:46;13.40;99.90
21612;DHT22;47005;52.292;13.452;2022-10-15T06:57:11;13.50;99.90
21612;DHT22;47005;52.292;13.452;2022-10-15T06:59:37;13.40;99.90
21612;DHT22;47005;52.292;13.452;2022-10-15T07:02:03;13.50;99.90
21612;DHT22;47005;52.292;13.452;2022-10-15T07:04:28;13.50;99.90
21612;DHT22;47005;52.292;13.452;2022-10-15T07:06:54;13.50;99.90
21612;DHT22;47005;52.292;13.452;2022-10-15T07:09:19;13.50;99.90
21612;DHT22;47005;52.292;13.452;2022-10-15T07:11:45;13.50;99.90
21612;DHT22;47005;52.292;13.452;2022-10-15T07:14:11;13.50;99.90
21612;DHT22;47005;52.292;13.452;2022-10-15T07:16:36;13.50;99.90
21612;DHT22;47005;52.292;13.452;2022-10-15T07:19:03;13.60;99.90
21612;DHT22;47005;52.292;13.452;2022-10-15T07:21:29;13.60;99.90
21612;DHT22;47005;52.292;13.452;2022-10-15T07:23:54;13.60;99.90
21612;DHT22;47005;52.292;13.452;2022-10-15T07:26:20;13.60;99.90
21612;DHT22;47005;52.292;13.452;2022-10-15T07:28:46;13.70;99.90
21612;DHT22;47005;52.292;13.452;2022-10-15T07:31:11;13.70;99.90
21612;DHT22;47005;52.292;13.452;2022-10-15T07:33:37;13.70;99.90
21612;DHT22;47005;52.292;13.452;2022-10-15T07:36:04;13.70;99.90
21612;DHT22;47005;52.292;13.452;2022-10-15T07:38:30;13.80;99.90
21612;DHT22;47005;52.292;13.452;2022-10-15T07:40:57;13.80;99.90
21612;DHT22;47005;52.292;13.452;2022-10-15T07:43:23;13.80;99.90
21612;DHT22;47005;52.292;13.452;2022-10-15T07:45:49;13.90;99.90
21612;DHT22;47005;52.292;13.452;2022-10-15T07:48:15;13.90;99.90
21612;DHT22;47005;52.292;13.452;2022-10-15T07:50:40;13.90;99.90
21612;DHT22;47005;52.292;13.452;2022-10-15T07:53:06;14.00;99.90
21612;DHT22;47005;52.292;13.452;2022-10-15T07:55:31;14.00;99.90
21612;DHT22;47005;52.292;13.452;2022-10-15T07:57:57;14.00;99.90
21612;DHT22;47005;52.292;13.452;2022-10-15T08:00:23;14.00;99.90
21612;DHT22;47005;52.292;13.452;2022-10-15T08:02:49;14.10;99.90
21612;DHT22;47005;52.292;13.452;2022-10-15T08:05:14;14.20;99.90
21612;DHT22;47005;52.292;13.452;2022-10-15T08:07:40;14.20;99.90
21612;DHT22;47005;52.292;13.452;2022-10-15T08:10:07;14.20;99.90
21612;DHT22;47005;52.292;13.452;2022-10-15T08:12:33;14.20;99.90
21612;DHT22;47005;52.292;13.452;2022-10-15T08:14:58;14.30;99.90
21612;DHT22;47005;52.292;13.452;2022-10-15T08:17:24;14.30;99.90
21612;DHT22;47005;52.292;13.452;2022-10-15T08:19:49;14.30;99.90
21612;DHT22;47005;52.292;13.452;2022-10-15T08:22:15;14.40;99.90
21612;DHT22;47005;52.292;13.452;2022-10-15T08:24:41;14.40;99.90
21612;DHT22;47005;52.292;13.452;2022-10-15T08:27:06;14.40;99.90
21612;DHT22;47005;52.292;13.452;2022-10-15T08:29:32;14.40;99.90
21612;DHT22;47005;52.292;13.452;2022-10-15T08:31:57;14.50;99.90
21612;DHT22;47005;52.292;13.452;2022-10-15T08:34:23;14.40;99.90
21612;DHT22;47005;52.292;13.452;2022-10-15T08:36:49;14.50;99.90
21612;DHT22;47005;52.292;13.452;2022-10-15T08:39:14;14.50;99.90
21612;DHT22;47005;52.292;13.452;2022-10-15T08:44:25;14.60;99.90
21612;DHT22;47005;52.292;13.452;2022-10-15T08:46:58;14.60;99.90
21612;DHT22;47005;52.292;13.452;2022-10-15T08:49:48;14.60;99.90
21612;DHT22;47005;52.292;13.452;2022-10-15T08:52:27;14.70;99.90
21612;DHT22;47005;52.292;13.452;2022-10-15T08:54:59;14.70;99.90
21612;DHT22;47005;52.292;13.452;2022-10-15T08:57:53;14.70;99.90
21612;DHT22;47005;52.292;13.452;2022-10-15T09:00:24;14.80;99.90
21612;DHT22;47005;52.292;13.452;2022-10-15T09:03:04;14.80;99.90
21612;DHT22;47005;52.292;13.452;2022-10-15T09:11:17;14.90;99.90
21612;DHT22;47005;52.292;13.452;2022-10-15T09:13:44;15.00;99.90
21612;DHT22;47005;52.292;13.452;2022-10-15T09:16:28;15.10;99.90
21612;DHT22;47005;52.292;13.452;2022-10-15T09:19:00;15.10;99.90
21612;DHT22;47005;52.292;13.452;2022-10-15T09:21:28;15.10;99.90
21612;DHT22;47005;52.292;13.452;2022-10-15T09:23:57;15.10;99.90
21612;DHT22;47005;52.292;13.452;2022-10-15T09:26:48;15.20;99.90
21612;DHT22;47005;52.292;13.452;2022-10-15T09:34:56;15.20;99.90
21612;DHT22;47005;52.292;13.452;2022-10-15T09:40:33;15.30;99.90
21612;DHT22;47005;52.292;13.452;2022-10-15T09:43:02;15.30;99.90
21612;DHT22;47005;52.292;13.452;2022-10-15T09:45:28;15.40;99.90
21612;DHT22;47005;52.292;13.452;2022-10-15T09:47:59;15.40;99.90
21612;DHT22;47005;52.292;13.452;2022-10-15T09:50:29;15.40;99.90
21612;DHT22;47005;52.292;13.452;2022-10-15T09:55:36;15.50;99.90
21612;DHT22;47005;52.292;13.452;2022-10-15T09:58:06;15.50;99.90
21612;DHT22;47005;52.292;13.452;2022-10-15T10:00:52;15.50;99.90
21612;DHT22;47005;52.292;13.452;2022-10-15T10:03:20;15.50;99.90
21612;DHT22;47005;52.292;13.452;2022-10-15T10:05:46;15.60;99.90
21612;DHT22;47005;52.292;13.452;2022-10-15T10:08:23;15.60;99.90
21612;DHT22;47005;52.292;13.452;2022-10-15T10:10:54;15.60;99.90
21612;DHT22;47005;52.292;13.452;2022-10-15T10:13:44;15.60;99.90
21612;DHT22;47005;52.292;13.452;2022-10-15T10:16:12;15.60;99.90
21612;DHT22;47005;52.292;13.452;2022-10-15T10:18:39;15.60;99.90
21612;DHT22;47005;52.292;13.452;2022-10-15T10:21:19;15.60;99.90
21612;DHT22;47005;52.292;13.452;2022-10-15T10:23:45;15.70;99.90
21612;DHT22;47005;52.292;13.452;2022-10-15T10:26:11;15.70;99.90
21612;DHT22;47005;52.292;13.452;2022-10-15T10:31:14;15.70;99.90
21612;DHT22;47005;52.292;13.452;2022-10-15T10:33:48;15.70;99.90
21612;DHT22;47005;52.292;13.452;2022-10-15T10:36:20;15.80;99.90
21612;DHT22;47005;52.292;13.452;2022-10-15T10:41:58;15.80;99.90
21612;DHT22;47005;52.292;13.452;2022-10-15T10:44:30;15.80;99.90
21612;DHT22;47005;52.292;13.452;2022-10-15T10:47:15;15.90;99.90
21612;DHT22;47005;52.292;13.452;2022-10-15T10:49:45;15.90;99.90
21612;DHT22;47005;52.292;13.452;2022-10-15T10:57:50;15.90;99.90
21612;DHT22;47005;52.292;13.452;2022-10-15T11:00:32;16.00;99.90
21612;DHT22;47005;52.292;13.452;2022-10-15T11:02:59;16.00;99.90
21612;DHT22;47005;52.292;13.452;2022-10-15T11:05:27;16.00;99.90
21612;DHT22;47005;52.292;13.452;2022-10-15T11:16:03;16.00;99.90
21612;DHT22;47005;52.292;13.452;2022-10-15T11:24:13;16.00;99.90
21612;DHT22;47005;52.292;13.452;2022-10-15T11:26:59;16.00;99.90
21612;DHT22;47005;52.292;13.452;2022-10-15T11:29:58;16.10;99.90
21612;DHT22;47005;52.292;13.452;2022-10-15T11:35:05;16.10;99.90
21612;DHT22;47005;52.292;13.452;2022-10-15T11:38:03;16.10;99.90
21612;DHT22;47005;52.292;13.452;2022-10-15T11:40:33;16.20;99.90
21612;DHT22;47005;52.292;13.452;2022-10-15T11:46:33;16.10;99.90
21612;DHT22;47005;52.292;13.452;2022-10-15T11:56:51;16.20;99.90
21612;DHT22;47005;52.292;13.452;2022-10-15T11:59:37;16.20;99.90
21612;DHT22;47005;52.292;13.452;2022-10-15T12:02:12;16.20;99.90
21612;DHT22;47005;52.292;13.452;2022-10-15T12:04:46;16.30;99.90
21612;DHT22;47005;52.292;13.452;2022-10-15T12:07:17;16.30;99.90
21612;DHT22;47005;52.292;13.452;2022-10-15T12:09:48;16.30;99.90
21612;DHT22;47005;52.292;13.452;2022-10-15T12:14:49;16.30;99.90
21612;DHT22;47005;52.292;13.452;2022-10-15T12:17:23;16.30;99.90
21612;DHT22;47005;52.292;13.452;2022-10-15T12:19:54;16.30;99.90
21612;DHT22;47005;52.292;13.452;2022-10-15T12:22:53;16.30;99.90
21612;DHT22;47005;52.292;13.452;2022-10-15T12:28:11;16.30;99.90
21612;DHT22;47005;52.292;13.452;2022-10-15T12:30:37;16.40;99.90
21612;DHT22;47005;52.292;13.452;2022-10-15T12:38:31;16.40;99.90
21612;DHT22;47005;52.292;13.452;2022-10-15T12:41:02;16.40;99.90
21612;DHT22;47005;52.292;13.452;2022-10-15T12:43:30;16.40;99.90
21612;DHT22;47005;52.292;13.452;2022-10-15T12:45:59;16.40;99.90
21612;DHT22;47005;52.292;13.452;2022-10-15T12:53:42;16.40;99.90
21612;DHT22;47005;52.292;13.452;2022-10-15T12:58:42;16.40;99.90
21612;DHT22;47005;52.292;13.452;2022-10-15T13:03:44;16.40;99.90
21612;DHT22;47005;52.292;13.452;2022-10-15T13:08:50;16.40;99.90
21612;DHT22;47005;52.292;13.452;2022-10-15T13:11:52;16.40;99.90
21612;DHT22;47005;52.292;13.452;2022-10-15T13:14:28;16.40;99.90
21612;DHT22;47005;52.292;13.452;2022-10-15T13:16:55;16.40;99.90
21612;DHT22;47005;52.292;13.452;2022-10-15T13:19:35;16.40;99.90
21612;DHT22;47005;52.292;13.452;2022-10-15T13:22:03;16.40;99.90
21612;DHT22;47005;52.292;13.452;2022-10-15T13:24:39;16.40;99.90
21612;DHT22;47005;52.292;13.452;2022-10-15T13:27:14;16.40;99.90
21612;DHT22;47005;52.292;13.452;2022-10-15T13:29:55;16.40;99.90
21612;DHT22;47005;52.292;13.452;2022-10-15T13:32:21;16.40;99.90
21612;DHT22;47005;52.292;13.452;2022-10-15T13:34:48;16.40;99.90
21612;DHT22;47005;52.292;13.452;2022-10-15T13:37:22;16.40;99.90
21612;DHT22;47005;52.292;13.452;2022-10-15T13:39:49;16.40;99.90
21612;DHT22;47005;52.292;13.452;2022-10-15T13:44:54;16.50;99.90
21612;DHT22;47005;52.292;13.452;2022-10-15T13:47:30;16.50;99.90
21612;DHT22;47005;52.292;13.452;2022-10-15T13:50:22;16.50;99.90
21612;DHT22;47005;52.292;13.452;2022-10-15T13:53:02;16.50;99.90
21612;DHT22;47005;52.292;13.452;2022-10-15T13:55:31;16.50;99.90
21612;DHT22;47005;52.292;13.452;2022-10-15T13:58:18;16.60;99.90
21612;DHT22;47005;52.292;13.452;2022-10-15T14:05:52;16.60;99.90
21612;DHT22;47005;52.292;13.452;2022-10-15T14:08:25;16.60;99.90
21612;DHT22;47005;52.292;13.452;2022-10-15T14:10:53;16.70;99.90
21612;DHT22;47005;52.292;13.452;2022-10-15T14:13:19;16.60;99.90
21612;DHT22;47005;52.292;13.452;2022-10-15T14:15:46;16.70;99.90
21612;DHT22;47005;52.292;13.452;2022-10-15T14:18:15;16.70;99.90
21612;DHT22;47005;52.292;13.452;2022-10-15T14:20:46;16.70;99.90
21612;DHT22;47005;52.292;13.452;2022-10-15T14:23:19;16.70;99.90
21612;DHT22;47005;52.292;13.452;2022-10-15T14:25:51;16.70;99.90
21612;DHT22;47005;52.292;13.452;2022-10-15T14:28:21;16.70;99.90
21612;DHT22;47005;52.292;13.452;2022-10-15T14:30:48;16.80;99.90
21612;DHT22;47005;52.292;13.452;2022-10-15T14:36:12;16.80;99.90
21612;DHT22;47005;52.292;13.452;2022-10-15T14:38:39;16.80;99.90
21612;DHT22;47005;52.292;13.452;2022-10-15T14:41:26;16.80;99.90
21612;DHT22;47005;52.292;13.452;2022-10-15T14:44:02;16.80;99.90
21612;DHT22;47005;52.292;13.452;2022-10-15T14:46:36;16.80;99.90
21612;DHT22;47005;52.292;13.452;2022-10-15T14:49:02;16.80;99.90
21612;DHT22;47005;52.292;13.452;2022-10-15T14:51:28;16.80;99.90
21612;DHT22;47005;52.292;13.452;2022-10-15T14:53:54;16.80;99.90
21612;DHT22;47005;52.292;13.452;2022-10-15T14:56:27;16.80;99.90
21612;DHT22;47005;52.292;13.452;2022-10-15T14:58:55;16.80;99.90
21612;DHT22;47005;52.292;13.452;2022-10-15T15:01:22;16.80;99.90
21612;DHT22;47005;52.292;13.452;2022-10-15T15:03:53;16.80;99.90
21612;DHT22;47005;52.292;13.452;2022-10-15T15:06:20;16.70;99.90
21612;DHT22;47005;52.292;13.452;2022-10-15T15:08:46;16.70;99.90
21612;DHT22;47005;52.292;13.452;2022-10-15T15:11:23;16.70;99.90
21612;DHT22;47005;52.292;13.452;2022-10-15T15:13:49;16.70;99.90
21612;DHT22;47005;52.292;13.452;2022-10-15T15:16:16;16.60;99.90
21612;DHT22;47005;52.292;13.452;2022-10-15T15:18:42;16.60;99.90
21612;DHT22;47005;52.292;13.452;2022-10-15T15:21:16;16.60;99.90
21612;DHT22;47005;52.292;13.452;2022-10-15T15:23:44;16.60;99.90
21612;DHT22;47005;52.292;13.452;2022-10-15T15:26:09;16.60;99.90
21612;DHT22;47005;52.292;13.452;2022-10-15T15:28:35;16.60;99.90
21612;DHT22;47005;52.292;13.452;2022-10-15T15:31:05;16.50;99.90
21612;DHT22;47005;52.292;13.452;2022-10-15T15:33:32;16.50;99.90
21612;DHT22;47005;52.292;13.452;2022-10-15T15:36:05;16.40;99.90
21612;DHT22;47005;52.292;13.452;2022-10-15T15:38:32;16.50;99.90
21612;DHT22;47005;52.292;13.452;2022-10-15T15:43:38;16.40;99.90
21612;DHT22;47005;52.292;13.452;2022-10-15T15:46:04;16.40;99.90
21612;DHT22;47005;52.292;13.452;2022-10-15T15:48:29;16.40;99.90
21612;DHT22;47005;52.292;13.452;2022-10-15T15:51:05;16.30;99.90
21612;DHT22;47005;52.292;13.452;2022-10-15T15:53:31;16.30;99.90
21612;DHT22;47005;52.292;13.452;2022-10-15T15:55:57;16.30;99.90
21612;DHT22;47005;52.292;13.452;2022-10-15T15:58:23;16.30;99.90
21612;DHT22;47005;52.292;13.452;2022-10-15T16:00:48;16.30;99.90
21612;DHT22;47005;52.292;13.452;2022-10-15T16:03:14;16.20;99.90
21612;DHT22;47005;52.292;13.452;2022-10-15T16:05:40;16.20;99.90
21612;DHT22;47005;52.292;13.452;2022-10-15T16:08:08;16.20;99.90
21612;DHT22;47005;52.292;13.452;2022-10-15T16:10:34;16.20;99.90
21612;DHT22;47005;52.292;13.452;2022-10-15T16:13:01;16.20;99.90
21612;DHT22;47005;52.292;13.452;2022-10-15T16:15:27;16.10;99.90
21612;DHT22;47005;52.292;13.452;2022-10-15T16:17:52;16.10;99.90
21612;DHT22;47005;52.292;13.452;2022-10-15T16:20:19;16.10;99.90
21612;DHT22;47005;52.292;13.452;2022-10-15T16:22:51;16.10;99.90
21612;DHT22;47005;52.292;13.452;2022-10-15T16:25:17;16.00;99.90
21612;DHT22;47005;52.292;13.452;2022-10-15T16:27:43;15.90;99.90
21612;DHT22;47005;52.292;13.452;2022-10-15T16:30:13;16.00;99.90
21612;DHT22;47005;52.292;13.452;2022-10-15T16:32:38;16.00;99.90
21612;DHT22;47005;52.292;13.452;2022-10-15T16:35:04;15.90;99.90
21612;DHT22;47005;52.292;13.452;2022-10-15T16:37:30;15.90;99.90
21612;DHT22;47005;52.292;13.452;2022-10-15T16:39:56;15.90;99.90
21612;DHT22;47005;52.292;13.452;2022-10-15T16:42:21;15.90;99.90
21612;DHT22;47005;52.292;13.452;2022-10-15T16:44:47;15.80;99.90
21612;DHT22;47005;52.292;13.452;2022-10-15T16:47:12;15.80;99.90
21612;DHT22;47005;52.292;13.452;2022-10-15T16:49:38;15.80;99.90
21612;DHT22;47005;52.292;13.452;2022-10-15T16:52:03;15.80;99.90
21612;DHT22;47005;52.292;13.452;2022-10-15T16:54:29;15.60;99.90
21612;DHT22;47005;52.292;13.452;2022-10-15T16:56:54;15.70;99.90
21612;DHT22;47005;52.292;13.452;2022-10-15T16:59:22;15.70;99.90
21612;DHT22;47005;52.292;13.452;2022-10-15T17:01:48;15.70;99.90
21612;DHT22;47005;52.292;13.452;2022-10-15T17:04:13;15.70;99.90
21612;DHT22;47005;52.292;13.452;2022-10-15T17:06:39;15.60;99.90
21612;DHT22;47005;52.292;13.452;2022-10-15T17:09:04;15.60;99.90
21612;DHT22;47005;52.292;13.452;2022-10-15T17:11:38;15.60;99.90
21612;DHT22;47005;52.292;13.452;2022-10-15T17:14:07;15.60;99.90
21612;DHT22;47005;52.292;13.452;2022-10-15T17:16:37;15.60;99.90
21612;DHT22;47005;52.292;13.452;2022-10-15T17:19:03;15.50;99.90
21612;DHT22;47005;52.292;13.452;2022-10-15T17:21:30;15.50;99.90
21612;DHT22;47005;52.292;13.452;2022-10-15T17:23:58;15.50;99.90